Austinburg, Pennsylvania
Current Conditions -  °F | °C
As of 4:35 PM on Tuesday 25 Nov 2014 (Local Time) from KN38 Reporting Station
Clear Clear  
Wind Chill: 36°   Ceiling: Unl
Heat Index: 43°   Visibility: 10mi
Dew Point: 25°   Wind: 14mph
Humidity: 49%   Direction: 220°SW
Pressure: 29.99"   Gusts: NA
Location:  41.9659°N, 77.4284°W
Report Text: KN38 252135Z AUTO 22012KT 10SM CLR 06/M04 A2999 RMK AO2
Loading
Personal Weather Stations






























Interactive Weather Map New forecast layout! Learn more

10-Day Weather Forecast

Advertisements
Track Severe Weather on mobile